createdAt,value
2019-01-31T00:01:25.049Z,-3.33
2019-01-31T00:04:26.953Z,-3.26
2019-01-31T00:07:17.099Z,-3.26
2019-01-31T00:09:57.319Z,-3.22
2019-01-31T00:12:45.483Z,-3.15
2019-01-31T00:15:44.453Z,-3.13
2019-01-31T00:18:23.174Z,-3.16
2019-01-31T00:21:22.072Z,-3.12
2019-01-31T00:24:07.225Z,-3.14
2019-01-31T00:27:00.214Z,-3.12
2019-01-31T00:29:33.901Z,-3.12
2019-01-31T00:32:19.450Z,-3.15
2019-01-31T00:35:21.682Z,-3.21
2019-01-31T00:38:12.709Z,-3.12
2019-01-31T00:40:44.047Z,-3.00
2019-01-31T00:43:24.375Z,-3.06
2019-01-31T00:46:17.175Z,-3.13
2019-01-31T00:49:19.082Z,-3.21
2019-01-31T00:51:59.019Z,-3.29
2019-01-31T00:54:49.386Z,-3.43
2019-01-31T00:57:45.318Z,-3.51
2019-01-31T01:00:17.002Z,-3.51
2019-01-31T01:03:01.298Z,-3.51
2019-01-31T01:05:46.909Z,-3.56
2019-01-31T01:08:29.894Z,-3.48
2019-01-31T01:11:19.714Z,-3.59
2019-01-31T01:14:05.649Z,-3.58
2019-01-31T01:16:51.085Z,-3.61
2019-01-31T01:19:31.160Z,-3.63
2019-01-31T01:22:17.039Z,-3.67
2019-01-31T01:25:13.083Z,-3.63
2019-01-31T01:28:01.983Z,-3.65
2019-01-31T01:31:00.840Z,-3.60
2019-01-31T01:33:41.897Z,-3.59
2019-01-31T01:36:21.594Z,-3.58
2019-01-31T01:39:18.960Z,-3.60
2019-01-31T01:41:52.426Z,-3.61
2019-01-31T01:44:39.298Z,-3.47
2019-01-31T01:47:26.133Z,-3.42
2019-01-31T01:49:58.224Z,-3.45
2019-01-31T01:52:29.034Z,-3.29
2019-01-31T01:55:22.175Z,-3.22
2019-01-31T01:58:09.029Z,-3.06
2019-01-31T02:00:55.939Z,-3.01
2019-01-31T02:03:39.463Z,-2.96
2019-01-31T02:06:26.455Z,-2.97
2019-01-31T02:09:13.293Z,-2.82
2019-01-31T02:11:52.235Z,-2.94
2019-01-31T02:14:43.710Z,-3.00
2019-01-31T02:17:31.305Z,-3.10
2019-01-31T02:20:11.929Z,-3.20
2019-01-31T02:22:51.900Z,-3.33
2019-01-31T02:25:25.158Z,-3.34
2019-01-31T02:27:59.518Z,-3.36
2019-01-31T02:31:01.390Z,-3.34
2019-01-31T02:34:00.867Z,-3.30
2019-01-31T02:36:46.547Z,-3.26
2019-01-31T02:39:19.244Z,-3.21
2019-01-31T02:42:09.243Z,-3.36
2019-01-31T02:44:56.093Z,-3.49
2019-01-31T02:47:33.822Z,-3.46
2019-01-31T02:50:09.051Z,-3.38
2019-01-31T02:53:05.289Z,-3.34
2019-01-31T02:56:10.275Z,-3.25
2019-01-31T02:58:49.790Z,-3.29
2019-01-31T03:01:31.094Z,-3.21
2019-01-31T03:04:20.319Z,-3.23
2019-01-31T03:07:06.079Z,-3.18
2019-01-31T03:09:37.683Z,-3.12
2019-01-31T03:12:10.569Z,-3.14
2019-01-31T03:14:43.895Z,-3.10
2019-01-31T03:17:36.868Z,-3.09
2019-01-31T03:20:33.186Z,-3.08
2019-01-31T03:23:25.974Z,-3.04
2019-01-31T03:26:21.725Z,-3.01
2019-01-31T03:29:05.829Z,-3.02
2019-01-31T03:31:49.989Z,-2.95
2019-01-31T03:34:36.827Z,-2.95
2019-01-31T03:37:23.730Z,-2.95
2019-01-31T03:40:06.302Z,-2.99
2019-01-31T03:42:53.270Z,-2.93
2019-01-31T03:45:27.521Z,-2.95
2019-01-31T03:48:14.390Z,-2.97
2019-01-31T03:50:50.695Z,-2.98
2019-01-31T03:53:39.332Z,-3.04
2019-01-31T03:56:24.891Z,-2.98
2019-01-31T03:59:12.934Z,-2.98
2019-01-31T04:01:47.291Z,-2.96
2019-01-31T04:04:19.592Z,-3.00
2019-01-31T04:06:46.942Z,-3.09
2019-01-31T04:09:14.399Z,-3.08
2019-01-31T04:11:41.751Z,-3.35
2019-01-31T04:14:09.131Z,-3.51
2019-01-31T04:16:36.469Z,-3.64
2019-01-31T04:19:03.869Z,-3.75
2019-01-31T04:21:31.223Z,-3.82
2019-01-31T04:23:58.605Z,-3.88
2019-01-31T04:26:25.992Z,-3.98
2019-01-31T04:28:53.349Z,-4.00
2019-01-31T04:31:20.799Z,-4.01
2019-01-31T04:33:48.158Z,-4.04
2019-01-31T04:36:15.646Z,-4.08
2019-01-31T04:38:43.048Z,-4.16
2019-01-31T04:41:10.439Z,-4.10
2019-01-31T04:43:37.823Z,-4.05
2019-01-31T04:46:05.184Z,-3.93
2019-01-31T04:48:32.648Z,-3.95
2019-01-31T04:51:00.035Z,-3.91
2019-01-31T04:53:27.394Z,-3.86
2019-01-31T04:55:54.836Z,-3.81
2019-01-31T04:58:22.238Z,-3.78
2019-01-31T05:00:49.566Z,-3.76
2019-01-31T05:03:17.027Z,-3.67
2019-01-31T05:05:44.447Z,-3.70
2019-01-31T05:08:11.846Z,-3.51
2019-01-31T05:10:43.223Z,-3.32
2019-01-31T05:13:08.505Z,-3.23
2019-01-31T05:15:35.872Z,-3.13
2019-01-31T05:18:03.562Z,-3.01
2019-01-31T05:20:30.962Z,-2.87
2019-01-31T05:22:58.335Z,-2.80
2019-01-31T05:25:25.697Z,-2.74
2019-01-31T05:27:53.072Z,-2.74
2019-01-31T05:30:20.550Z,-2.75
2019-01-31T05:32:47.891Z,-2.90
2019-01-31T05:35:15.248Z,-2.82
2019-01-31T05:37:42.736Z,-2.84
2019-01-31T05:40:11.286Z,-2.84
2019-01-31T05:42:38.687Z,-2.82
2019-01-31T05:45:07.458Z,-2.73
2019-01-31T05:47:34.886Z,-2.79
2019-01-31T05:50:02.750Z,-2.78
2019-01-31T05:52:30.116Z,-2.86
2019-01-31T05:54:57.519Z,-2.95
2019-01-31T05:57:24.876Z,-2.95
2019-01-31T05:59:52.286Z,-2.93
2019-01-31T06:02:19.697Z,-2.92
2019-01-31T06:04:47.083Z,-2.85
2019-01-31T06:07:14.485Z,-2.94
2019-01-31T06:09:41.849Z,-2.89
2019-01-31T06:12:09.319Z,-2.86
2019-01-31T06:14:36.933Z,-2.89
2019-01-31T06:17:04.404Z,-2.80
2019-01-31T06:19:31.827Z,-2.78
2019-01-31T06:21:59.238Z,-2.75
2019-01-31T06:24:26.595Z,-2.65
2019-01-31T06:26:53.983Z,-2.65
2019-01-31T06:29:21.341Z,-2.60
2019-01-31T06:31:48.812Z,-2.51
2019-01-31T06:34:16.192Z,-2.43
2019-01-31T06:36:43.539Z,-2.42
2019-01-31T06:39:10.953Z,-2.44
2019-01-31T06:41:38.326Z,-2.34
2019-01-31T06:44:05.798Z,-2.39
2019-01-31T06:46:33.166Z,-2.44
2019-01-31T06:49:00.653Z,-2.45
2019-01-31T06:51:28.161Z,-2.41
2019-01-31T06:53:55.632Z,-2.44
2019-01-31T06:56:23.014Z,-2.46
2019-01-31T06:58:50.379Z,-2.41
2019-01-31T07:01:17.754Z,-2.47
2019-01-31T07:03:45.110Z,-2.46
2019-01-31T07:06:12.518Z,-2.51
2019-01-31T07:08:39.898Z,-2.46
2019-01-31T07:11:07.375Z,-2.51
2019-01-31T07:13:34.741Z,-2.46
2019-01-31T07:16:02.182Z,-2.44
2019-01-31T07:18:29.622Z,-2.39
2019-01-31T07:20:57.011Z,-2.32
2019-01-31T07:23:24.368Z,-2.37
2019-01-31T07:25:51.879Z,-2.34
2019-01-31T07:28:19.391Z,-2.31
2019-01-31T07:30:46.806Z,-2.21
2019-01-31T07:33:14.184Z,-2.16
2019-01-31T07:35:41.683Z,-2.19
2019-01-31T07:38:09.078Z,-2.17
2019-01-31T07:40:36.435Z,-2.11
2019-01-31T07:43:03.836Z,-2.07
2019-01-31T07:45:31.258Z,-2.11
2019-01-31T07:47:58.637Z,-2.07
2019-01-31T07:50:26.404Z,-2.06
2019-01-31T07:52:54.127Z,-2.06
2019-01-31T07:55:21.544Z,-2.14
2019-01-31T07:57:48.945Z,-2.20
2019-01-31T08:00:16.551Z,-2.20
2019-01-31T08:02:44.041Z,-2.18
2019-01-31T08:05:13.428Z,-2.20
2019-01-31T08:07:40.818Z,-2.10
2019-01-31T08:10:10.062Z,-2.14
2019-01-31T08:12:37.503Z,-2.12
2019-01-31T08:15:07.658Z,-2.00
2019-01-31T08:17:34.875Z,-2.01
2019-01-31T08:20:02.487Z,-1.90
2019-01-31T08:22:29.855Z,-1.67
2019-01-31T08:24:57.211Z,-1.24
2019-01-31T08:27:24.735Z,-0.88
2019-01-31T08:29:52.089Z,-0.63
2019-01-31T08:32:19.406Z,-0.38
2019-01-31T08:34:46.775Z,-0.33
2019-01-31T08:37:14.224Z,-0.19
2019-01-31T08:39:41.563Z,0.45
2019-01-31T08:42:08.910Z,0.78
2019-01-31T08:44:36.270Z,1.16
2019-01-31T08:47:03.906Z,0.95
2019-01-31T08:49:31.343Z,0.30
2019-01-31T08:51:58.775Z,-0.17
2019-01-31T08:54:26.213Z,-0.44
2019-01-31T08:56:53.666Z,-0.27
2019-01-31T08:59:21.111Z,-0.06
2019-01-31T09:01:48.570Z,0.10
2019-01-31T09:04:15.993Z,0.69
2019-01-31T09:06:43.401Z,1.74
2019-01-31T09:09:12.319Z,3.55
2019-01-31T09:11:39.813Z,4.42
2019-01-31T09:14:07.267Z,4.01
2019-01-31T09:16:34.675Z,3.20
2019-01-31T09:19:04.045Z,3.04
2019-01-31T09:21:36.459Z,2.74
2019-01-31T09:24:24.630Z,2.52
2019-01-31T09:27:20.647Z,2.63
2019-01-31T09:29:59.247Z,1.93
2019-01-31T09:32:37.631Z,1.58
2019-01-31T09:35:10.638Z,1.35
2019-01-31T09:38:00.376Z,1.08
2019-01-31T09:40:36.675Z,0.59
2019-01-31T09:43:26.574Z,0.43
2019-01-31T09:46:25.491Z,0.35
2019-01-31T09:49:15.283Z,0.15
2019-01-31T09:52:14.315Z,0.04
2019-01-31T09:54:54.113Z,-0.09
2019-01-31T09:57:50.969Z,0.08
2019-01-31T10:00:37.642Z,0.28
2019-01-31T10:03:10.034Z,0.32
2019-01-31T10:05:55.799Z,0.39
2019-01-31T10:08:41.747Z,0.54
2019-01-31T10:11:43.830Z,0.57
2019-01-31T10:14:17.059Z,0.49
2019-01-31T10:17:02.226Z,0.41
2019-01-31T10:19:55.058Z,0.26
2019-01-31T10:22:35.479Z,0.32
2019-01-31T10:25:22.227Z,0.42
2019-01-31T10:28:11.887Z,0.42
2019-01-31T10:31:08.003Z,0.46
2019-01-31T10:34:01.119Z,0.52
2019-01-31T10:36:31.555Z,0.64
2019-01-31T10:39:30.875Z,0.49
2019-01-31T10:42:23.790Z,0.57
2019-01-31T10:45:00.210Z,0.95
2019-01-31T10:47:46.670Z,1.37
2019-01-31T10:50:36.530Z,1.61
2019-01-31T10:53:11.297Z,2.02
2019-01-31T10:55:58.135Z,2.40
2019-01-31T10:58:57.317Z,2.30
2019-01-31T11:01:47.088Z,2.34
2019-01-31T11:04:37.266Z,2.41
2019-01-31T11:07:19.623Z,2.71
2019-01-31T11:10:09.559Z,2.95
2019-01-31T11:13:00.898Z,4.17
2019-01-31T11:15:44.482Z,5.43
2019-01-31T11:18:31.345Z,4.91
2019-01-31T11:21:06.774Z,4.34
2019-01-31T11:23:41.207Z,3.93
2019-01-31T11:26:30.955Z,3.99
2019-01-31T11:29:16.624Z,3.14
2019-01-31T11:32:00.681Z,2.93
2019-01-31T11:34:38.970Z,2.96
2019-01-31T11:37:25.888Z,2.51
2019-01-31T11:40:27.834Z,2.45
2019-01-31T11:43:11.477Z,2.07
2019-01-31T11:46:00.661Z,2.12
2019-01-31T11:48:50.978Z,2.07
2019-01-31T11:51:37.830Z,3.01
2019-01-31T11:54:25.371Z,3.67
2019-01-31T11:57:20.007Z,3.84
2019-01-31T11:59:47.475Z,4.15
2019-01-31T12:02:14.842Z,3.90
2019-01-31T12:04:42.211Z,3.43
2019-01-31T12:07:09.593Z,3.22
2019-01-31T12:09:36.995Z,3.10
2019-01-31T12:12:04.504Z,2.91
2019-01-31T12:14:31.977Z,2.93
2019-01-31T12:16:59.415Z,3.04
2019-01-31T12:19:26.855Z,3.24
2019-01-31T12:21:54.359Z,3.08
2019-01-31T12:24:21.751Z,3.06
2019-01-31T12:26:49.140Z,3.09
2019-01-31T12:29:16.599Z,2.85
2019-01-31T12:31:43.967Z,2.59
2019-01-31T12:34:11.479Z,2.38
2019-01-31T12:36:38.998Z,2.07
2019-01-31T12:39:07.611Z,2.09
2019-01-31T12:41:35.010Z,1.78
2019-01-31T12:44:02.357Z,1.74
2019-01-31T12:46:32.618Z,1.65
2019-01-31T12:48:59.040Z,1.74
2019-01-31T12:51:26.418Z,1.63
2019-01-31T12:53:53.898Z,1.70
2019-01-31T12:56:21.406Z,1.84
2019-01-31T12:58:48.818Z,1.82
2019-01-31T13:01:16.231Z,1.85
2019-01-31T13:03:43.837Z,1.91
2019-01-31T13:06:11.518Z,1.77
2019-01-31T13:08:38.891Z,1.73
2019-01-31T13:11:06.446Z,1.77
2019-01-31T13:13:33.858Z,1.79
2019-01-31T13:16:01.418Z,1.67
2019-01-31T13:18:28.914Z,1.58
2019-01-31T13:20:56.279Z,1.47
2019-01-31T13:23:23.659Z,1.29
2019-01-31T13:25:51.136Z,1.18
2019-01-31T13:28:18.547Z,1.02
2019-01-31T13:30:45.917Z,1.06
2019-01-31T13:33:13.291Z,1.10
2019-01-31T13:35:40.747Z,1.11
2019-01-31T13:38:08.628Z,0.96
2019-01-31T13:40:36.005Z,0.89
2019-01-31T13:43:03.465Z,0.92
2019-01-31T13:45:31.888Z,0.91
2019-01-31T13:48:00.723Z,0.94
2019-01-31T13:50:28.071Z,0.80
2019-01-31T13:52:55.544Z,0.81
2019-01-31T13:55:24.183Z,0.86
2019-01-31T13:57:51.562Z,0.75
2019-01-31T14:00:18.952Z,0.74
2019-01-31T14:02:46.346Z,0.81
2019-01-31T14:05:13.771Z,0.80
2019-01-31T14:07:41.131Z,0.89
2019-01-31T14:10:09.441Z,0.81
2019-01-31T14:12:36.817Z,0.90
2019-01-31T14:15:05.213Z,0.90
2019-01-31T14:17:32.608Z,0.92
2019-01-31T14:20:00.313Z,0.88
2019-01-31T14:22:27.874Z,0.82
2019-01-31T14:24:55.342Z,0.90
2019-01-31T14:27:22.771Z,0.91
2019-01-31T14:29:50.160Z,0.88
2019-01-31T14:32:19.246Z,0.84
2019-01-31T14:34:46.765Z,0.79
2019-01-31T14:37:14.292Z,0.77
2019-01-31T14:39:41.680Z,0.80
2019-01-31T14:42:09.077Z,0.78
2019-01-31T14:44:36.497Z,0.80
2019-01-31T14:47:04.127Z,0.78
2019-01-31T14:49:31.511Z,0.83
2019-01-31T14:51:58.996Z,0.82
2019-01-31T14:54:26.358Z,0.83
2019-01-31T14:56:53.731Z,0.78
2019-01-31T14:59:21.127Z,0.85
2019-01-31T15:01:48.535Z,0.77
2019-01-31T15:04:15.907Z,0.79
2019-01-31T15:06:43.314Z,0.77
2019-01-31T15:09:10.776Z,0.74
2019-01-31T15:11:38.185Z,0.73
2019-01-31T15:14:05.709Z,0.65
2019-01-31T15:16:33.189Z,0.54
2019-01-31T15:19:00.636Z,0.54
2019-01-31T15:21:28.046Z,0.59
2019-01-31T15:23:55.417Z,0.70
2019-01-31T15:26:22.985Z,0.77
2019-01-31T15:28:50.414Z,0.90
2019-01-31T15:31:17.823Z,0.76
2019-01-31T15:33:45.328Z,0.59
2019-01-31T15:36:12.719Z,0.30
2019-01-31T15:38:40.114Z,0.30
2019-01-31T15:41:07.604Z,0.13
2019-01-31T15:43:34.949Z,0.03
2019-01-31T15:46:02.372Z,-0.02
2019-01-31T15:48:30.137Z,-0.10
2019-01-31T15:50:58.586Z,-0.21
2019-01-31T15:53:25.992Z,-0.30
2019-01-31T15:55:53.449Z,-0.24
2019-01-31T15:58:21.168Z,-0.22
2019-01-31T16:00:49.876Z,-0.12
2019-01-31T16:03:18.410Z,-0.22
2019-01-31T16:05:45.947Z,-0.30
2019-01-31T16:08:13.476Z,-0.27
2019-01-31T16:10:40.883Z,-0.42
2019-01-31T16:13:08.351Z,-0.48
2019-01-31T16:15:36.070Z,-0.54
2019-01-31T16:18:03.836Z,-0.60
2019-01-31T16:20:31.215Z,-0.61
2019-01-31T16:22:58.700Z,-0.65
2019-01-31T16:25:26.261Z,-0.73
2019-01-31T16:27:54.082Z,-0.77
2019-01-31T16:30:21.557Z,-0.71
2019-01-31T16:32:48.937Z,-0.68
2019-01-31T16:35:16.421Z,-0.71
2019-01-31T16:37:43.910Z,-0.74
2019-01-31T16:40:12.611Z,-0.72
2019-01-31T16:42:40.353Z,-0.71
2019-01-31T16:45:08.807Z,-0.65
2019-01-31T16:47:36.176Z,-0.68
2019-01-31T16:50:04.602Z,-0.76
2019-01-31T16:52:32.037Z,-0.75
2019-01-31T16:54:59.546Z,-0.78
2019-01-31T16:57:27.018Z,-0.89
2019-01-31T16:59:54.791Z,-0.94
2019-01-31T17:02:24.586Z,-0.95
2019-01-31T17:04:51.987Z,-0.86
2019-01-31T17:07:19.354Z,-0.87
2019-01-31T17:09:46.850Z,-0.91
2019-01-31T17:12:14.337Z,-0.91
2019-01-31T17:14:41.721Z,-0.90
2019-01-31T17:17:09.159Z,-0.82
2019-01-31T17:19:36.570Z,-0.80
2019-01-31T17:22:06.585Z,-0.54
2019-01-31T17:24:33.763Z,-0.47
2019-01-31T17:27:01.233Z,-0.39
2019-01-31T17:29:28.685Z,-0.40
2019-01-31T17:31:56.193Z,-0.50
2019-01-31T17:34:23.551Z,-0.50
2019-01-31T17:36:50.955Z,-0.55
2019-01-31T17:39:18.423Z,-0.59
2019-01-31T17:41:46.083Z,-0.61
2019-01-31T17:44:13.469Z,-0.58
2019-01-31T17:46:40.925Z,-0.54
2019-01-31T17:49:08.464Z,-0.50
2019-01-31T17:51:36.030Z,-0.54
2019-01-31T17:54:03.746Z,-0.55
2019-01-31T17:56:31.169Z,-0.58
2019-01-31T17:58:58.630Z,-0.60
2019-01-31T18:01:26.190Z,-0.61
2019-01-31T18:03:53.699Z,-0.55
2019-01-31T18:06:21.218Z,-0.55
2019-01-31T18:08:48.660Z,-0.52
2019-01-31T18:11:16.088Z,-0.51
2019-01-31T18:13:43.524Z,-0.50
2019-01-31T18:16:11.003Z,-0.60
2019-01-31T18:18:40.300Z,-0.51
2019-01-31T18:21:07.833Z,-0.52
2019-01-31T18:23:35.261Z,-0.46
2019-01-31T18:26:02.757Z,-0.48
2019-01-31T18:28:30.294Z,-0.42
2019-01-31T18:30:57.769Z,-0.39
2019-01-31T18:33:27.485Z,-0.43
2019-01-31T18:35:54.646Z,-0.42
2019-01-31T18:38:22.070Z,-0.45
2019-01-31T18:40:49.543Z,-0.56
2019-01-31T18:43:18.058Z,-0.57
2019-01-31T18:45:52.915Z,-0.60
2019-01-31T18:48:14.802Z,-0.62
2019-01-31T18:50:42.241Z,-0.66
2019-01-31T18:53:09.693Z,-0.68
2019-01-31T18:55:37.278Z,-0.70
2019-01-31T18:58:04.796Z,-0.73
2019-01-31T19:00:33.548Z,-0.75
2019-01-31T19:03:01.121Z,-0.73
2019-01-31T19:05:28.996Z,-0.78
2019-01-31T19:07:56.484Z,-0.77
2019-01-31T19:10:24.267Z,-0.76
2019-01-31T19:12:52.197Z,-0.63
2019-01-31T19:15:23.171Z,-0.56
2019-01-31T19:17:52.793Z,-0.55
2019-01-31T19:20:21.960Z,-0.49
2019-01-31T19:22:49.824Z,-0.51
2019-01-31T19:25:19.370Z,-0.46
2019-01-31T19:27:49.165Z,-0.46
2019-01-31T19:30:23.004Z,-0.43
2019-01-31T19:32:53.561Z,-0.39
2019-01-31T19:35:32.297Z,-0.41
2019-01-31T19:38:02.364Z,-0.30
2019-01-31T19:40:31.475Z,-0.31
2019-01-31T19:43:02.544Z,-0.28
2019-01-31T19:45:31.349Z,-0.35
2019-01-31T19:47:59.288Z,-0.25
2019-01-31T19:50:27.791Z,-0.24
2019-01-31T19:53:01.381Z,-0.17
2019-01-31T19:55:29.247Z,-0.14
2019-01-31T19:57:58.943Z,0.02
2019-01-31T20:00:26.641Z,0.06
2019-01-31T20:02:56.098Z,0.06
2019-01-31T20:05:32.780Z,0.20
2019-01-31T20:08:00.328Z,0.14
2019-01-31T20:10:32.722Z,0.12
2019-01-31T20:13:03.565Z,0.13
2019-01-31T20:15:31.376Z,0.11
2019-01-31T20:18:01.793Z,0.04
2019-01-31T20:20:29.342Z,0.03
2019-01-31T20:22:58.861Z,0.36
2019-01-31T20:25:26.931Z,0.31
2019-01-31T20:27:54.821Z,0.38
2019-01-31T20:30:23.434Z,0.29
2019-01-31T20:32:55.872Z,0.28
2019-01-31T20:35:32.095Z,0.17
2019-01-31T20:38:05.353Z,-0.08
2019-01-31T20:40:40.722Z,-0.21
2019-01-31T20:43:08.689Z,-0.30
2019-01-31T20:45:38.028Z,-0.41
2019-01-31T20:48:06.164Z,-0.49
2019-01-31T20:50:36.843Z,-0.49
2019-01-31T20:53:10.140Z,-0.48
2019-01-31T20:55:59.320Z,-0.52
2019-01-31T20:58:29.358Z,-0.39
2019-01-31T21:01:01.014Z,-0.34
2019-01-31T21:03:28.556Z,-0.31
2019-01-31T21:05:56.407Z,-0.25
2019-01-31T21:08:26.154Z,-0.21
2019-01-31T21:10:53.906Z,-0.20
2019-01-31T21:13:30.987Z,-0.12
2019-01-31T21:16:03.994Z,-0.04
2019-01-31T21:18:35.857Z,0.02
2019-01-31T21:21:05.697Z,0.09
2019-01-31T21:23:41.593Z,0.16
2019-01-31T21:26:11.085Z,0.23
2019-01-31T21:28:41.377Z,0.20
2019-01-31T21:31:11.515Z,0.28
2019-01-31T21:33:41.307Z,0.31
2019-01-31T21:36:09.622Z,0.32
2019-01-31T21:38:45.441Z,0.37
2019-01-31T21:41:16.899Z,0.32
2019-01-31T21:43:45.613Z,0.35
2019-01-31T21:46:21.368Z,0.32
2019-01-31T21:48:49.177Z,0.34
2019-01-31T21:51:16.970Z,0.33
2019-01-31T21:53:47.312Z,0.34
2019-01-31T21:56:17.615Z,0.28
2019-01-31T21:58:45.314Z,0.28
2019-01-31T22:01:12.807Z,0.36
2019-01-31T22:03:40.227Z,0.33
2019-01-31T22:06:07.697Z,0.28
2019-01-31T22:08:35.186Z,0.35
2019-01-31T22:11:02.813Z,0.37
2019-01-31T22:13:30.323Z,0.33
2019-01-31T22:15:57.703Z,0.25
2019-01-31T22:18:25.084Z,0.23
2019-01-31T22:20:52.523Z,0.16
2019-01-31T22:23:20.036Z,0.16
2019-01-31T22:25:47.496Z,0.28
2019-01-31T22:28:14.934Z,0.24
2019-01-31T22:30:42.333Z,0.37
2019-01-31T22:33:09.704Z,0.39
2019-01-31T22:35:37.084Z,0.46
2019-01-31T22:38:04.754Z,0.49
2019-01-31T22:40:32.172Z,0.48
2019-01-31T22:42:59.643Z,0.52
2019-01-31T22:45:27.177Z,0.52
2019-01-31T22:47:54.664Z,0.58
2019-01-31T22:50:22.145Z,0.60
2019-01-31T22:52:49.625Z,0.63
2019-01-31T22:55:17.732Z,0.62
2019-01-31T22:57:45.286Z,0.71
2019-01-31T23:00:18.065Z,0.79
2019-01-31T23:02:45.535Z,0.76
2019-01-31T23:05:12.918Z,0.80
2019-01-31T23:07:40.313Z,0.80
2019-01-31T23:10:08.712Z,0.90
2019-01-31T23:12:36.181Z,0.98
2019-01-31T23:15:04.332Z,1.08
2019-01-31T23:17:37.325Z,1.07
2019-01-31T23:20:01.011Z,1.09
2019-01-31T23:22:28.463Z,1.13
2019-01-31T23:24:55.849Z,1.14
2019-01-31T23:27:23.293Z,1.25
2019-01-31T23:29:50.784Z,1.23
2019-01-31T23:32:18.171Z,1.24
2019-01-31T23:34:45.549Z,1.30
2019-01-31T23:37:12.929Z,1.36
2019-01-31T23:39:40.323Z,1.41
2019-01-31T23:42:07.809Z,1.53
2019-01-31T23:44:35.592Z,1.61
2019-01-31T23:47:03.347Z,1.70
2019-01-31T23:49:30.763Z,1.78
2019-01-31T23:51:58.401Z,1.76
2019-01-31T23:54:25.867Z,1.69
2019-01-31T23:56:53.222Z,1.74
2019-01-31T23:59:20.621Z,1.73
